createdAt,value
2023-01-18T00:00:31.574Z,1.90
2023-01-18T00:01:31.574Z,1.10
2023-01-18T00:02:31.546Z,1.00
2023-01-18T00:03:31.513Z,1.20
2023-01-18T00:04:31.522Z,1.40
2023-01-18T00:05:31.518Z,1.50
2023-01-18T00:06:31.489Z,0.90
2023-01-18T00:07:31.509Z,1.20
2023-01-18T00:08:31.478Z,1.30
2023-01-18T00:09:31.453Z,1.10
2023-01-18T00:10:31.457Z,1.30
2023-01-18T00:11:31.433Z,1.30
2023-01-18T00:12:31.468Z,1.30
2023-01-18T00:13:31.454Z,1.90
2023-01-18T00:14:31.427Z,2.30
2023-01-18T00:15:31.413Z,1.50
2023-01-18T00:16:31.435Z,2.10
2023-01-18T00:17:31.370Z,2.90
2023-01-18T00:18:31.350Z,1.00
2023-01-18T00:19:31.382Z,1.60
2023-01-18T00:20:31.362Z,2.80
2023-01-18T00:21:31.337Z,1.80
2023-01-18T00:22:31.330Z,2.20
2023-01-18T00:23:31.332Z,1.10
2023-01-18T00:24:31.318Z,1.00
2023-01-18T00:25:31.322Z,1.00
2023-01-18T00:26:31.299Z,1.30
2023-01-18T00:27:31.268Z,1.50
2023-01-18T00:28:31.279Z,1.60
2023-01-18T00:29:31.282Z,1.10
2023-01-18T00:30:31.273Z,1.40
2023-01-18T00:31:31.299Z,1.10
2023-01-18T00:32:31.264Z,1.10
2023-01-18T00:33:31.226Z,1.50
2023-01-18T00:34:31.220Z,1.10
2023-01-18T00:35:31.197Z,1.10
2023-01-18T00:36:31.196Z,1.20
2023-01-18T00:37:31.172Z,0.70
2023-01-18T00:38:31.194Z,1.50
2023-01-18T00:39:31.147Z,1.60
2023-01-18T00:40:31.172Z,1.80
2023-01-18T00:41:31.175Z,1.50
2023-01-18T00:42:31.145Z,1.80
2023-01-18T00:43:31.147Z,2.00
2023-01-18T00:44:31.124Z,2.10
2023-01-18T00:45:31.153Z,1.60
2023-01-18T00:46:31.100Z,1.80
2023-01-18T00:47:31.114Z,1.20
2023-01-18T00:48:31.115Z,1.60
2023-01-18T00:49:31.074Z,1.70
2023-01-18T00:50:31.068Z,1.50
2023-01-18T00:51:31.051Z,1.10
2023-01-18T00:52:31.085Z,1.20
2023-01-18T00:53:31.013Z,1.60
2023-01-18T00:54:31.039Z,1.40
2023-01-18T00:55:31.035Z,2.10
2023-01-18T00:56:31.004Z,2.30
2023-01-18T00:57:30.988Z,2.00
2023-01-18T00:58:30.978Z,2.40
2023-01-18T00:59:30.963Z,1.40
2023-01-18T01:00:30.977Z,1.40
2023-01-18T01:01:31.058Z,2.00
2023-01-18T01:02:31.019Z,1.60
2023-01-18T01:03:30.919Z,2.10
2023-01-18T01:04:30.920Z,3.40
2023-01-18T01:05:30.933Z,1.80
2023-01-18T01:06:30.907Z,2.00
2023-01-18T01:07:30.900Z,1.50
2023-01-18T01:08:30.887Z,1.70
2023-01-18T01:09:30.895Z,2.30
2023-01-18T01:10:30.893Z,2.10
2023-01-18T01:11:30.861Z,2.30
2023-01-18T01:12:30.858Z,1.60
2023-01-18T01:13:30.832Z,1.90
2023-01-18T01:14:30.815Z,2.00
2023-01-18T01:15:30.806Z,1.90
2023-01-18T01:16:30.831Z,2.30
2023-01-18T01:17:30.788Z,1.70
2023-01-18T01:18:30.783Z,1.90
2023-01-18T01:19:30.760Z,2.30
2023-01-18T01:20:30.800Z,1.90
2023-01-18T01:21:30.787Z,2.00
2023-01-18T01:22:30.784Z,1.90
2023-01-18T01:23:30.743Z,2.50
2023-01-18T01:24:30.717Z,1.60
2023-01-18T01:25:30.709Z,2.10
2023-01-18T01:26:30.726Z,2.50
2023-01-18T01:27:30.689Z,2.40
2023-01-18T01:28:30.695Z,2.20
2023-01-18T01:29:30.664Z,1.90
2023-01-18T01:30:30.680Z,2.50
2023-01-18T01:31:30.681Z,1.70
2023-01-18T01:32:30.668Z,1.70
2023-01-18T01:33:30.636Z,2.40
2023-01-18T01:34:30.617Z,1.80
2023-01-18T01:35:30.631Z,2.10
2023-01-18T01:36:30.591Z,2.00
2023-01-18T01:37:30.600Z,1.30
2023-01-18T01:38:30.613Z,2.10
2023-01-18T01:39:30.782Z,1.90
2023-01-18T01:40:30.551Z,2.20
2023-01-18T01:41:30.548Z,2.20
2023-01-18T01:42:30.539Z,2.10
2023-01-18T01:43:30.550Z,1.70
2023-01-18T01:44:30.514Z,2.10
2023-01-18T01:45:30.519Z,2.00
2023-01-18T01:46:30.505Z,1.60
2023-01-18T01:47:30.489Z,1.80
2023-01-18T01:48:30.485Z,2.50
2023-01-18T01:49:30.487Z,1.80
2023-01-18T01:50:30.475Z,1.60
2023-01-18T01:51:30.448Z,2.10
2023-01-18T01:52:30.433Z,1.90
2023-01-18T01:53:30.439Z,1.70
2023-01-18T01:54:30.583Z,2.30
2023-01-18T01:55:30.406Z,1.60
2023-01-18T01:56:30.380Z,2.20
2023-01-18T01:57:30.397Z,2.30
2023-01-18T01:58:30.382Z,1.70
2023-01-18T01:59:30.376Z,1.90
2023-01-18T02:00:30.367Z,1.80
2023-01-18T02:01:30.467Z,2.50
2023-01-18T02:02:30.357Z,2.10
2023-01-18T02:03:30.320Z,2.60
2023-01-18T02:04:30.346Z,1.90
2023-01-18T02:05:30.299Z,1.90
2023-01-18T02:06:30.281Z,2.30
2023-01-18T02:07:30.281Z,1.90
2023-01-18T02:08:30.275Z,2.30
2023-01-18T02:09:30.284Z,2.10
2023-01-18T02:10:30.343Z,1.70
2023-01-18T02:11:30.268Z,1.70
2023-01-18T02:12:30.242Z,1.80
2023-01-18T02:13:30.223Z,1.90
2023-01-18T02:14:30.213Z,2.20
2023-01-18T02:15:30.198Z,2.40
2023-01-18T02:16:30.203Z,1.90
2023-01-18T02:17:30.166Z,1.90
2023-01-18T02:18:30.178Z,1.90
2023-01-18T02:19:30.174Z,1.80
2023-01-18T02:20:30.146Z,2.20
2023-01-18T02:21:30.148Z,2.30
2023-01-18T02:22:30.113Z,1.70
2023-01-18T02:23:30.127Z,1.90
2023-01-18T02:24:30.117Z,2.70
2023-01-18T02:25:30.090Z,2.70
2023-01-18T02:26:30.101Z,2.20
2023-01-18T02:27:30.082Z,1.90
2023-01-18T02:28:30.064Z,1.60
2023-01-18T02:29:30.085Z,1.90
2023-01-18T02:30:30.209Z,2.10
2023-01-18T02:31:30.073Z,3.10
2023-01-18T02:32:30.047Z,2.80
2023-01-18T02:33:30.028Z,2.00
2023-01-18T02:34:30.007Z,2.20
2023-01-18T02:35:29.998Z,2.00
2023-01-18T02:36:29.964Z,2.30
2023-01-18T02:37:29.979Z,1.40
2023-01-18T02:38:29.978Z,1.90
2023-01-18T02:39:29.996Z,1.80
2023-01-18T02:40:29.941Z,2.60
2023-01-18T02:41:29.951Z,2.30
2023-01-18T02:42:29.926Z,2.70
2023-01-18T02:43:29.929Z,1.80
2023-01-18T02:44:29.931Z,1.70
2023-01-18T02:45:29.897Z,1.90
2023-01-18T02:46:29.898Z,1.80
2023-01-18T02:47:29.889Z,1.80
2023-01-18T02:48:29.847Z,1.70
2023-01-18T02:49:29.870Z,2.00
2023-01-18T02:50:29.859Z,1.50
2023-01-18T02:51:29.854Z,2.10
2023-01-18T02:52:29.808Z,2.00
2023-01-18T02:53:29.810Z,2.50
2023-01-18T02:54:29.806Z,2.20
2023-01-18T02:55:29.796Z,2.10
2023-01-18T02:56:29.779Z,2.50
2023-01-18T02:57:29.775Z,3.00
2023-01-18T02:58:29.763Z,2.00
2023-01-18T02:59:29.759Z,2.40
2023-01-18T03:00:29.741Z,2.10
2023-01-18T03:01:29.864Z,1.50
2023-01-18T03:02:29.741Z,1.90
2023-01-18T03:03:29.721Z,1.80
2023-01-18T03:04:29.688Z,1.50
2023-01-18T03:05:29.693Z,2.10
2023-01-18T03:06:29.683Z,2.50
2023-01-18T03:07:29.696Z,2.00
2023-01-18T03:08:29.659Z,2.40
2023-01-18T03:09:29.639Z,2.00
2023-01-18T03:10:29.661Z,1.70
2023-01-18T03:11:29.622Z,2.70
2023-01-18T03:12:29.612Z,1.90
2023-01-18T03:13:29.633Z,1.40
2023-01-18T03:14:29.586Z,2.20
2023-01-18T03:15:29.666Z,2.00
2023-01-18T03:16:29.567Z,2.20
2023-01-18T03:17:29.586Z,2.80
2023-01-18T03:18:29.566Z,2.40
2023-01-18T03:19:29.544Z,2.90
2023-01-18T03:20:29.527Z,2.50
2023-01-18T03:21:29.532Z,2.30
2023-01-18T03:22:29.529Z,2.30
2023-01-18T03:23:29.526Z,2.30
2023-01-18T03:24:29.489Z,2.30
2023-01-18T03:25:29.552Z,2.00
2023-01-18T03:26:29.501Z,2.50
2023-01-18T03:27:29.480Z,2.80
2023-01-18T03:28:29.440Z,2.40
2023-01-18T03:29:29.447Z,2.50
2023-01-18T03:30:29.433Z,1.60
2023-01-18T03:31:29.575Z,2.30
2023-01-18T03:32:29.398Z,2.10
2023-01-18T03:33:29.415Z,2.10
2023-01-18T03:34:29.395Z,1.70
2023-01-18T03:35:29.388Z,2.10
2023-01-18T03:36:29.363Z,2.60
2023-01-18T03:37:29.376Z,2.20
2023-01-18T03:38:29.348Z,2.90
2023-01-18T03:39:29.362Z,1.80
2023-01-18T03:40:29.333Z,2.60
2023-01-18T03:41:29.339Z,2.50
2023-01-18T03:42:29.314Z,2.00
2023-01-18T03:43:29.332Z,2.30
2023-01-18T03:44:29.279Z,2.30
2023-01-18T03:45:29.299Z,2.60
2023-01-18T03:46:29.306Z,2.30
2023-01-18T03:47:29.280Z,2.60
2023-01-18T03:48:29.252Z,1.30
2023-01-18T03:49:29.289Z,2.60
2023-01-18T03:50:29.230Z,1.60
2023-01-18T03:51:29.233Z,2.40
2023-01-18T03:52:29.217Z,2.00
2023-01-18T03:53:29.240Z,2.30
2023-01-18T03:54:29.197Z,2.90
2023-01-18T03:55:29.187Z,2.40
2023-01-18T03:56:29.171Z,1.50
2023-01-18T03:57:29.169Z,2.30
2023-01-18T03:58:32.328Z,2.80
2023-01-18T03:59:29.150Z,3.20
2023-01-18T04:00:29.148Z,4.00
2023-01-18T04:01:29.305Z,2.10
2023-01-18T04:02:29.332Z,2.40
2023-01-18T04:03:29.207Z,3.00
2023-01-18T04:04:29.106Z,2.30
2023-01-18T04:05:29.139Z,2.50
2023-01-18T04:06:29.113Z,2.70
2023-01-18T04:07:29.127Z,2.40
2023-01-18T04:08:29.057Z,2.50
2023-01-18T04:09:29.079Z,2.20
2023-01-18T04:10:29.132Z,2.00
2023-01-18T04:11:29.037Z,2.10
2023-01-18T04:12:29.008Z,3.00
2023-01-18T04:13:29.315Z,2.30
2023-01-18T04:14:29.010Z,2.50
2023-01-18T04:15:28.991Z,2.10
2023-01-18T04:16:28.966Z,2.60
2023-01-18T04:17:28.993Z,2.20
2023-01-18T04:18:28.954Z,2.50
2023-01-18T04:19:28.962Z,2.00
2023-01-18T04:20:28.925Z,2.10
2023-01-18T04:21:28.932Z,3.00
2023-01-18T04:22:28.916Z,1.70
2023-01-18T04:23:28.917Z,2.50
2023-01-18T04:24:28.880Z,2.10
2023-01-18T04:25:28.903Z,3.30
2023-01-18T04:26:28.877Z,3.10
2023-01-18T04:27:28.864Z,1.80
2023-01-18T04:28:28.854Z,2.00
2023-01-18T04:29:28.850Z,2.30
2023-01-18T04:30:28.837Z,2.00
2023-01-18T04:31:28.876Z,1.80
2023-01-18T04:32:28.839Z,1.40
2023-01-18T04:33:28.810Z,2.20
2023-01-18T04:34:28.788Z,2.60
2023-01-18T04:35:28.834Z,2.10
2023-01-18T04:36:28.770Z,2.00
2023-01-18T04:37:28.767Z,1.50
2023-01-18T04:38:28.745Z,2.40
2023-01-18T04:39:28.757Z,2.00
2023-01-18T04:40:28.722Z,2.60
2023-01-18T04:41:28.780Z,2.60
2023-01-18T04:42:28.744Z,2.90
2023-01-18T04:43:28.723Z,2.40
2023-01-18T04:44:28.695Z,2.30
2023-01-18T04:45:28.687Z,3.00
2023-01-18T04:46:28.722Z,2.40
2023-01-18T04:47:28.683Z,2.40
2023-01-18T04:48:28.681Z,2.00
2023-01-18T04:49:28.663Z,2.10
2023-01-18T04:50:28.632Z,2.80
2023-01-18T04:51:28.652Z,1.80
2023-01-18T04:52:28.611Z,2.50
2023-01-18T04:53:28.604Z,2.90
2023-01-18T04:54:28.600Z,2.80
2023-01-18T04:55:28.588Z,2.70
2023-01-18T04:56:28.582Z,2.20
2023-01-18T04:57:28.573Z,2.40
2023-01-18T04:58:28.541Z,2.40
2023-01-18T04:59:28.584Z,2.30
2023-01-18T05:00:28.567Z,2.70
2023-01-18T05:01:28.683Z,2.50
2023-01-18T05:02:28.598Z,2.50
2023-01-18T05:03:28.509Z,2.20
2023-01-18T05:04:28.501Z,1.90
2023-01-18T05:05:28.506Z,2.60
2023-01-18T05:06:28.494Z,1.90
2023-01-18T05:07:28.469Z,1.80
2023-01-18T05:08:28.470Z,2.60
2023-01-18T05:09:28.450Z,2.60
2023-01-18T05:10:28.450Z,2.70
2023-01-18T05:11:28.433Z,2.20
2023-01-18T05:12:28.432Z,2.30
2023-01-18T05:13:28.411Z,2.40
2023-01-18T05:14:28.402Z,2.00
2023-01-18T05:15:28.395Z,3.00
2023-01-18T05:16:28.413Z,2.90
2023-01-18T05:17:28.368Z,2.30
2023-01-18T05:18:28.370Z,2.00
2023-01-18T05:19:28.359Z,3.00
2023-01-18T05:20:28.332Z,3.00
2023-01-18T05:21:28.362Z,2.30
2023-01-18T05:22:28.338Z,2.20
2023-01-18T05:23:28.322Z,3.20
2023-01-18T05:24:29.972Z,2.20
2023-01-18T05:25:28.303Z,1.90
2023-01-18T05:26:28.294Z,2.50
2023-01-18T05:27:28.288Z,2.90
2023-01-18T05:28:28.272Z,2.30
2023-01-18T05:29:28.264Z,2.80
2023-01-18T05:30:28.234Z,1.40
2023-01-18T05:31:28.273Z,2.70
2023-01-18T05:32:28.228Z,2.40
2023-01-18T05:33:28.228Z,2.60
2023-01-18T05:34:28.206Z,2.00
2023-01-18T05:35:28.199Z,2.40
2023-01-18T05:36:28.193Z,2.20
2023-01-18T05:37:28.203Z,2.30
2023-01-18T05:38:28.171Z,2.80
2023-01-18T05:39:28.167Z,2.20
2023-01-18T05:40:28.150Z,2.40
2023-01-18T05:41:28.330Z,2.30
2023-01-18T05:42:28.146Z,3.60
2023-01-18T05:43:28.120Z,2.70
2023-01-18T05:44:28.111Z,2.80
2023-01-18T05:45:28.155Z,3.10
2023-01-18T05:46:28.109Z,2.60
2023-01-18T05:47:28.094Z,2.70
2023-01-18T05:48:28.085Z,3.00
2023-01-18T05:49:28.066Z,2.10
2023-01-18T05:50:28.060Z,1.50
2023-01-18T05:51:28.083Z,3.30
2023-01-18T05:52:28.045Z,2.80
2023-01-18T05:53:28.040Z,2.20
2023-01-18T05:54:28.018Z,2.60
2023-01-18T05:55:28.008Z,1.90
2023-01-18T05:56:28.001Z,2.10
2023-01-18T05:57:27.994Z,3.40
2023-01-18T05:58:28.008Z,2.10
2023-01-18T05:59:27.964Z,2.80
2023-01-18T06:00:27.974Z,2.90
2023-01-18T06:01:27.950Z,2.30
2023-01-18T06:02:27.957Z,2.80
2023-01-18T06:03:27.946Z,2.70
2023-01-18T06:04:27.953Z,2.50
2023-01-18T06:05:27.920Z,2.60
2023-01-18T06:06:27.941Z,3.20
2023-01-18T06:07:27.890Z,2.50
2023-01-18T06:08:27.886Z,1.60
2023-01-18T06:09:27.899Z,2.70
2023-01-18T06:10:27.855Z,2.80
2023-01-18T06:11:27.843Z,2.50
2023-01-18T06:12:27.860Z,3.20
2023-01-18T06:13:27.835Z,2.40
2023-01-18T06:14:27.830Z,3.20
2023-01-18T06:15:27.848Z,2.90
2023-01-18T06:16:27.841Z,2.40
2023-01-18T06:17:27.841Z,2.70
2023-01-18T06:18:27.785Z,2.80
2023-01-18T06:19:27.801Z,3.30
2023-01-18T06:20:27.801Z,2.40
2023-01-18T06:21:27.773Z,2.30
2023-01-18T06:22:27.791Z,3.40
2023-01-18T06:23:27.751Z,2.90
2023-01-18T06:24:27.756Z,2.90
2023-01-18T06:25:27.732Z,3.20
2023-01-18T06:26:27.711Z,3.10
2023-01-18T06:27:27.795Z,2.50
2023-01-18T06:28:30.369Z,3.10
2023-01-18T06:29:27.674Z,3.00
2023-01-18T06:30:27.676Z,2.40
2023-01-18T06:31:27.696Z,2.70
2023-01-18T06:32:27.684Z,2.40
2023-01-18T06:33:27.663Z,2.60
2023-01-18T06:34:30.193Z,2.60
2023-01-18T06:35:27.650Z,2.20
2023-01-18T06:36:27.614Z,3.20
2023-01-18T06:37:27.611Z,3.90
2023-01-18T06:38:27.621Z,3.00
2023-01-18T06:39:27.575Z,3.10
2023-01-18T06:40:27.625Z,3.50
2023-01-18T06:41:27.583Z,3.20
2023-01-18T06:42:27.571Z,3.10
2023-01-18T06:43:27.584Z,3.30
2023-01-18T06:44:27.603Z,3.10
2023-01-18T06:45:27.582Z,3.70
2023-01-18T06:46:27.559Z,3.00
2023-01-18T06:47:27.513Z,2.90
2023-01-18T06:48:27.501Z,3.40
2023-01-18T06:49:27.536Z,3.40
2023-01-18T06:50:27.516Z,3.00
2023-01-18T06:51:27.495Z,3.10
2023-01-18T06:52:27.466Z,3.40
2023-01-18T06:53:27.745Z,2.30
2023-01-18T06:54:34.953Z,2.30
2023-01-18T06:55:27.424Z,2.80
2023-01-18T06:56:27.428Z,3.40
2023-01-18T06:57:27.409Z,3.00
2023-01-18T06:58:27.425Z,3.40
2023-01-18T06:59:27.345Z,3.60
2023-01-18T07:00:27.339Z,3.40
2023-01-18T07:01:27.468Z,3.10
2023-01-18T07:02:27.341Z,3.80
2023-01-18T07:03:27.311Z,4.30
2023-01-18T07:04:27.399Z,2.90
2023-01-18T07:05:27.280Z,3.00
2023-01-18T07:06:27.309Z,2.70
2023-01-18T07:07:27.287Z,3.50
2023-01-18T07:08:27.255Z,2.90
2023-01-18T07:09:27.240Z,3.10
2023-01-18T07:10:27.262Z,4.40
2023-01-18T07:11:27.231Z,2.70
2023-01-18T07:12:27.287Z,3.70
2023-01-18T07:13:27.267Z,2.90
2023-01-18T07:14:27.235Z,3.40
2023-01-18T07:15:27.224Z,3.00
2023-01-18T07:16:27.271Z,3.70
2023-01-18T07:17:27.182Z,3.50
2023-01-18T07:18:27.188Z,3.70
2023-01-18T07:19:27.177Z,4.40
2023-01-18T07:20:27.158Z,3.50
2023-01-18T07:21:27.134Z,2.90
2023-01-18T07:22:27.135Z,3.20
2023-01-18T07:23:27.142Z,3.70
2023-01-18T07:24:27.139Z,3.10
2023-01-18T07:25:27.089Z,3.10
2023-01-18T07:26:27.112Z,3.10
2023-01-18T07:27:27.076Z,2.80
2023-01-18T07:28:27.077Z,3.40
2023-01-18T07:29:27.080Z,2.20
2023-01-18T07:30:27.054Z,2.70
2023-01-18T07:31:27.039Z,2.90
2023-01-18T07:32:27.048Z,3.50
2023-01-18T07:33:27.014Z,2.50
2023-01-18T07:34:27.021Z,3.30
2023-01-18T07:35:27.015Z,3.80
2023-01-18T07:36:26.991Z,3.10
2023-01-18T07:37:26.993Z,3.60
2023-01-18T07:38:27.031Z,5.30
2023-01-18T07:39:26.982Z,4.50
2023-01-18T07:40:27.002Z,4.10
2023-01-18T07:41:27.068Z,4.00
2023-01-18T07:42:26.966Z,4.70
2023-01-18T07:43:26.919Z,4.10
2023-01-18T07:44:26.964Z,3.60
2023-01-18T07:45:26.887Z,4.20
2023-01-18T07:46:26.935Z,2.90
2023-01-18T07:47:26.900Z,2.90
2023-01-18T07:48:26.895Z,2.80
2023-01-18T07:49:26.872Z,2.40
2023-01-18T07:50:26.897Z,3.20
2023-01-18T07:51:26.833Z,3.00
2023-01-18T07:52:26.836Z,2.70
2023-01-18T07:53:26.862Z,2.90
2023-01-18T07:54:26.823Z,2.50
2023-01-18T07:55:26.829Z,2.60
2023-01-18T07:56:26.806Z,3.30
2023-01-18T07:57:26.777Z,3.20
2023-01-18T07:58:26.790Z,3.30
2023-01-18T07:59:26.809Z,3.90
2023-01-18T08:00:26.789Z,2.80
2023-01-18T08:01:26.885Z,3.30
2023-01-18T08:02:26.804Z,2.80
2023-01-18T08:03:26.733Z,2.70
2023-01-18T08:04:26.764Z,2.70
2023-01-18T08:05:26.707Z,2.70
2023-01-18T08:06:26.790Z,3.30
2023-01-18T08:07:26.725Z,3.50
2023-01-18T08:08:26.688Z,3.30
2023-01-18T08:09:26.697Z,3.00
2023-01-18T08:10:26.677Z,3.80
2023-01-18T08:11:26.677Z,3.70
2023-01-18T08:12:26.653Z,3.90
2023-01-18T08:13:26.654Z,3.90
2023-01-18T08:14:26.643Z,4.40
2023-01-18T08:15:26.628Z,4.80
2023-01-18T08:16:26.607Z,4.70
2023-01-18T08:17:26.595Z,4.40
2023-01-18T08:18:26.626Z,5.20
2023-01-18T08:19:26.564Z,5.90
2023-01-18T08:20:26.582Z,5.20
2023-01-18T08:21:26.577Z,5.30
2023-01-18T08:22:26.557Z,5.40
2023-01-18T08:23:26.556Z,5.20
2023-01-18T08:24:27.476Z,5.20
2023-01-18T08:25:26.541Z,4.70
2023-01-18T08:26:26.859Z,4.00
2023-01-18T08:27:27.398Z,4.20
2023-01-18T08:28:26.492Z,3.80
2023-01-18T08:29:26.476Z,4.10
2023-01-18T08:30:26.490Z,3.60
2023-01-18T08:31:26.563Z,3.20
2023-01-18T08:32:26.479Z,3.00
2023-01-18T08:33:26.448Z,3.50
2023-01-18T08:34:26.433Z,3.30
2023-01-18T08:35:26.446Z,3.90
2023-01-18T08:36:26.443Z,3.00
2023-01-18T08:37:26.416Z,3.30
2023-01-18T08:38:26.400Z,2.70
2023-01-18T08:39:26.376Z,4.20
2023-01-18T08:40:26.373Z,2.60
2023-01-18T08:41:28.310Z,4.30
2023-01-18T08:42:26.387Z,2.90
2023-01-18T08:43:26.351Z,3.20
2023-01-18T08:44:26.354Z,4.00
2023-01-18T08:45:26.347Z,3.00
2023-01-18T08:46:26.422Z,2.00
2023-01-18T08:47:26.340Z,2.40
2023-01-18T08:48:26.307Z,2.20
2023-01-18T08:49:26.348Z,2.70
2023-01-18T08:50:26.350Z,2.40
2023-01-18T08:51:26.380Z,3.00
2023-01-18T08:52:26.261Z,2.30
2023-01-18T08:53:26.247Z,2.90
2023-01-18T08:54:26.243Z,2.50
2023-01-18T08:55:26.227Z,1.70
2023-01-18T08:56:26.244Z,1.80
2023-01-18T08:57:26.204Z,1.80
2023-01-18T08:58:26.213Z,2.40
2023-01-18T08:59:26.223Z,2.90
2023-01-18T09:00:27.091Z,3.20
2023-01-18T09:01:26.232Z,3.40
2023-01-18T09:02:26.223Z,2.30
2023-01-18T09:03:26.194Z,2.90
2023-01-18T09:04:26.172Z,3.70
2023-01-18T09:05:26.119Z,2.70
2023-01-18T09:06:26.126Z,3.80
2023-01-18T09:07:26.108Z,3.50
2023-01-18T09:08:26.101Z,3.20
2023-01-18T09:09:26.098Z,3.40
2023-01-18T09:10:26.161Z,2.40
2023-01-18T09:11:26.081Z,3.20
2023-01-18T09:12:26.062Z,2.90
2023-01-18T09:13:26.038Z,3.40
2023-01-18T09:14:26.061Z,3.00
2023-01-18T09:15:26.035Z,4.60
2023-01-18T09:16:26.114Z,4.30
2023-01-18T09:17:26.003Z,3.40
2023-01-18T09:18:26.010Z,3.10
2023-01-18T09:19:25.994Z,2.90
2023-01-18T09:20:26.068Z,2.40
2023-01-18T09:21:25.969Z,2.40
2023-01-18T09:22:25.967Z,2.10
2023-01-18T09:23:25.988Z,3.00
2023-01-18T09:24:25.939Z,2.40
2023-01-18T09:25:25.928Z,3.50
2023-01-18T09:26:25.936Z,2.30
2023-01-18T09:27:25.908Z,3.20
2023-01-18T09:28:25.899Z,3.30
2023-01-18T09:29:25.895Z,3.40
2023-01-18T09:30:25.897Z,3.40
2023-01-18T09:31:26.009Z,2.70
2023-01-18T09:32:25.863Z,3.80
2023-01-18T09:33:36.811Z,4.20
2023-01-18T09:34:25.847Z,3.90
2023-01-18T09:35:25.831Z,3.90
2023-01-18T09:36:25.841Z,3.00
2023-01-18T09:37:25.797Z,3.30
2023-01-18T09:38:25.808Z,4.90
2023-01-18T09:39:25.799Z,4.00
2023-01-18T09:40:25.781Z,3.40
2023-01-18T09:41:25.775Z,3.40
2023-01-18T09:42:25.767Z,3.70
2023-01-18T09:43:25.737Z,4.30
2023-01-18T09:44:25.738Z,4.60
2023-01-18T09:45:25.728Z,3.20
2023-01-18T09:46:25.806Z,4.60
2023-01-18T09:47:25.711Z,4.10
2023-01-18T09:48:25.721Z,3.70
2023-01-18T09:49:25.696Z,3.50
2023-01-18T09:50:25.686Z,3.10
2023-01-18T09:51:25.850Z,3.50
2023-01-18T09:52:25.664Z,3.40
2023-01-18T09:53:25.641Z,3.20
2023-01-18T09:54:25.663Z,3.40
2023-01-18T09:55:25.630Z,3.50
2023-01-18T09:56:25.625Z,4.20
2023-01-18T09:57:25.599Z,3.30
2023-01-18T09:58:25.594Z,2.60
2023-01-18T09:59:25.601Z,3.50
2023-01-18T10:00:25.569Z,3.20
2023-01-18T10:01:25.738Z,3.00
2023-01-18T10:02:25.658Z,3.10
2023-01-18T10:03:25.550Z,3.00
2023-01-18T10:04:25.531Z,3.30
2023-01-18T10:05:25.531Z,3.70
2023-01-18T10:06:25.512Z,3.60
2023-01-18T10:07:25.523Z,4.40
2023-01-18T10:08:25.489Z,3.60
2023-01-18T10:09:25.495Z,2.90
2023-01-18T10:10:25.463Z,2.40
2023-01-18T10:11:25.463Z,3.00
2023-01-18T10:12:25.466Z,2.90
2023-01-18T10:13:25.468Z,2.50
2023-01-18T10:14:25.431Z,2.40
2023-01-18T10:15:25.441Z,1.90
2023-01-18T10:16:25.484Z,2.90
2023-01-18T10:17:25.418Z,1.70
2023-01-18T10:18:25.392Z,2.90
2023-01-18T10:19:25.395Z,2.70
2023-01-18T10:20:25.386Z,2.70
2023-01-18T10:21:25.373Z,2.80
2023-01-18T10:22:25.375Z,2.70
2023-01-18T10:23:26.346Z,2.50
2023-01-18T10:24:25.323Z,2.40
2023-01-18T10:25:25.333Z,2.50
2023-01-18T10:26:25.403Z,3.10
2023-01-18T10:27:25.319Z,3.10
2023-01-18T10:28:25.424Z,2.70
2023-01-18T10:29:25.289Z,2.60
2023-01-18T10:30:25.271Z,2.30
2023-01-18T10:31:25.310Z,3.00
2023-01-18T10:32:25.257Z,2.60
2023-01-18T10:33:25.258Z,2.50
2023-01-18T10:34:25.229Z,2.40
2023-01-18T10:35:25.301Z,3.00
2023-01-18T10:36:25.219Z,2.90
2023-01-18T10:37:25.222Z,3.00
2023-01-18T10:38:25.858Z,2.20
2023-01-18T10:39:25.193Z,3.40
2023-01-18T10:40:25.178Z,3.50
2023-01-18T10:41:25.173Z,3.80
2023-01-18T10:42:25.147Z,2.70
2023-01-18T10:43:25.237Z,2.80
2023-01-18T10:44:25.136Z,3.00
2023-01-18T10:45:25.209Z,2.50
2023-01-18T10:46:25.117Z,3.50
2023-01-18T10:47:25.121Z,2.60
2023-01-18T10:48:25.099Z,2.80
2023-01-18T10:49:25.094Z,3.00
2023-01-18T10:50:25.075Z,2.10
2023-01-18T10:51:25.070Z,3.00
2023-01-18T10:52:25.061Z,3.00
2023-01-18T10:53:25.083Z,3.30
2023-01-18T10:54:25.033Z,3.50
2023-01-18T10:55:25.032Z,2.20
2023-01-18T10:56:25.029Z,2.30
2023-01-18T10:57:25.046Z,2.50
2023-01-18T10:58:24.999Z,2.60
2023-01-18T10:59:24.994Z,2.50
2023-01-18T11:00:24.985Z,2.90
2023-01-18T11:01:25.173Z,2.70
2023-01-18T11:02:25.037Z,2.40
2023-01-18T11:03:24.956Z,2.80
2023-01-18T11:04:24.967Z,2.80
2023-01-18T11:05:24.929Z,3.30
2023-01-18T11:06:24.914Z,2.30
2023-01-18T11:07:24.906Z,2.00
2023-01-18T11:08:24.901Z,3.10
2023-01-18T11:09:24.974Z,2.50
2023-01-18T11:10:24.870Z,2.30
2023-01-18T11:11:24.864Z,2.70
2023-01-18T11:12:24.854Z,1.90
2023-01-18T11:13:24.857Z,3.20
2023-01-18T11:14:24.856Z,2.90
2023-01-18T11:15:24.852Z,2.80
2023-01-18T11:16:24.837Z,3.40
2023-01-18T11:17:24.810Z,2.70
2023-01-18T11:18:24.834Z,2.50
2023-01-18T11:19:24.800Z,2.80
2023-01-18T11:20:24.806Z,2.70
2023-01-18T11:21:24.772Z,3.40
2023-01-18T11:22:24.744Z,3.00
2023-01-18T11:23:24.760Z,3.00
2023-01-18T11:24:24.742Z,2.40
2023-01-18T11:25:24.731Z,3.60
2023-01-18T11:26:24.864Z,3.00
2023-01-18T11:27:24.705Z,3.10
2023-01-18T11:28:24.704Z,2.70
2023-01-18T11:29:26.026Z,2.90
2023-01-18T11:30:24.669Z,3.10
2023-01-18T11:31:24.680Z,2.80
2023-01-18T11:32:24.660Z,3.30
2023-01-18T11:33:24.657Z,2.70
2023-01-18T11:34:24.625Z,2.90
2023-01-18T11:35:24.625Z,2.90
2023-01-18T11:36:24.614Z,2.40
2023-01-18T11:37:24.623Z,3.10
2023-01-18T11:38:24.605Z,3.00
2023-01-18T11:39:24.589Z,2.80
2023-01-18T11:40:24.575Z,3.10
2023-01-18T11:41:24.584Z,3.00
2023-01-18T11:42:24.587Z,2.90
2023-01-18T11:43:24.554Z,2.60
2023-01-18T11:44:24.562Z,2.70
2023-01-18T11:45:24.588Z,2.20
2023-01-18T11:46:24.553Z,2.40
2023-01-18T11:47:24.517Z,1.80
2023-01-18T11:48:24.502Z,2.60
2023-01-18T11:49:24.500Z,2.90
2023-01-18T11:50:24.461Z,2.70
2023-01-18T11:51:24.510Z,2.60
2023-01-18T11:52:24.497Z,2.30
2023-01-18T11:53:24.482Z,2.60
2023-01-18T11:54:24.431Z,3.20
2023-01-18T11:55:24.466Z,2.70
2023-01-18T11:56:24.410Z,2.90
2023-01-18T11:57:24.421Z,2.70
2023-01-18T11:58:24.425Z,2.60
2023-01-18T11:59:24.389Z,2.20
2023-01-18T12:00:24.367Z,2.90
2023-01-18T12:01:24.370Z,2.70
2023-01-18T12:02:24.371Z,3.10
2023-01-18T12:03:24.480Z,2.80
2023-01-18T12:04:24.323Z,2.40
2023-01-18T12:05:24.332Z,3.00
2023-01-18T12:06:24.302Z,3.30
2023-01-18T12:07:24.304Z,2.50
2023-01-18T12:08:24.283Z,2.90
2023-01-18T12:09:24.374Z,4.30
2023-01-18T12:10:24.280Z,3.00
2023-01-18T12:11:24.290Z,2.60
2023-01-18T12:12:24.262Z,2.60
2023-01-18T12:13:24.255Z,2.80
2023-01-18T12:14:24.246Z,2.80
2023-01-18T12:15:24.272Z,3.00
2023-01-18T12:16:24.259Z,2.60
2023-01-18T12:17:24.224Z,2.50
2023-01-18T12:18:24.185Z,2.20
2023-01-18T12:19:24.200Z,2.70
2023-01-18T12:20:24.245Z,2.10
2023-01-18T12:21:24.174Z,3.30
2023-01-18T12:22:24.197Z,2.90
2023-01-18T12:23:24.185Z,3.00
2023-01-18T12:24:24.144Z,2.30
2023-01-18T12:25:24.151Z,2.90
2023-01-18T12:26:24.138Z,3.00
2023-01-18T12:27:24.130Z,2.30
2023-01-18T12:28:24.129Z,2.70
2023-01-18T12:29:24.120Z,3.00
2023-01-18T12:30:24.085Z,3.10
2023-01-18T12:31:24.067Z,2.00
2023-01-18T12:32:24.064Z,2.20
2023-01-18T12:33:38.275Z,3.20
2023-01-18T12:34:24.045Z,2.40
2023-01-18T12:35:25.312Z,2.60
2023-01-18T12:36:24.033Z,3.00
2023-01-18T12:37:24.018Z,2.20
2023-01-18T12:38:24.009Z,2.50
2023-01-18T12:39:24.035Z,2.90
2023-01-18T12:40:23.958Z,2.80
2023-01-18T12:41:23.986Z,2.30
2023-01-18T12:42:23.948Z,2.50
2023-01-18T12:43:23.953Z,2.40
2023-01-18T12:44:23.933Z,2.60
2023-01-18T12:45:23.942Z,2.90
2023-01-18T12:46:23.949Z,2.70
2023-01-18T12:47:23.931Z,2.50
2023-01-18T12:48:23.899Z,2.80
2023-01-18T12:49:23.936Z,2.50
2023-01-18T12:50:23.905Z,2.10
2023-01-18T12:51:23.943Z,2.70
2023-01-18T12:52:23.885Z,3.00
2023-01-18T12:53:23.887Z,2.20
2023-01-18T12:54:23.843Z,2.50
2023-01-18T12:55:23.906Z,3.00
2023-01-18T12:56:23.816Z,2.30
2023-01-18T12:57:23.806Z,2.80
2023-01-18T12:58:23.815Z,2.70
2023-01-18T12:59:23.836Z,3.60
2023-01-18T13:00:23.783Z,2.20
2023-01-18T13:01:23.885Z,3.10
2023-01-18T13:02:23.841Z,3.10
2023-01-18T13:03:25.245Z,2.60
2023-01-18T13:04:23.725Z,1.90
2023-01-18T13:05:23.767Z,2.70
2023-01-18T13:06:23.715Z,2.00
2023-01-18T13:07:23.702Z,2.40
2023-01-18T13:08:24.419Z,2.80
2023-01-18T13:09:23.698Z,2.10
2023-01-18T13:10:23.660Z,2.50
2023-01-18T13:11:23.688Z,2.60
2023-01-18T13:12:23.667Z,3.00
2023-01-18T13:13:23.646Z,2.10
2023-01-18T13:14:23.615Z,3.20
2023-01-18T13:15:23.638Z,3.40
2023-01-18T13:16:23.623Z,1.90
2023-01-18T13:17:23.610Z,2.40
2023-01-18T13:18:23.584Z,1.80